createdAt,value
2023-02-16T00:00:49.496Z,1.02
2023-02-16T00:03:19.294Z,2.12
2023-02-16T00:03:27.652Z,2.12
2023-02-16T00:05:46.392Z,2.58
2023-02-16T00:09:14.016Z,2.57
2023-02-16T00:09:14.247Z,2.57
2023-02-16T00:11:59.500Z,0.81
2023-02-16T00:13:27.666Z,0.81
2023-02-16T00:14:26.919Z,2.35
2023-02-16T00:16:55.044Z,2.48
2023-02-16T00:18:27.728Z,2.48
2023-02-16T00:19:24.475Z,2.46
2023-02-16T00:21:53.833Z,2.44
2023-02-16T00:23:27.709Z,2.44
2023-02-16T00:24:20.866Z,2.38
2023-02-16T00:26:52.985Z,2.35
2023-02-16T00:28:27.786Z,2.35
2023-02-16T00:29:37.266Z,2.34
2023-02-16T00:32:08.930Z,1.95
2023-02-16T00:33:28.769Z,1.95
2023-02-16T00:34:37.786Z,2.31
2023-02-16T00:37:13.083Z,2.31
2023-02-16T00:38:27.762Z,2.31
2023-02-16T00:39:41.474Z,2.27
2023-02-16T00:42:19.088Z,1.74
2023-02-16T00:43:27.754Z,1.74
2023-02-16T00:44:49.105Z,0.98
2023-02-16T00:47:34.146Z,2.22
2023-02-16T00:48:27.833Z,2.22
2023-02-16T00:50:00.663Z,1.66
2023-02-16T00:52:37.974Z,2.19
2023-02-16T00:53:27.757Z,2.19
2023-02-16T00:55:10.940Z,1.66
2023-02-16T00:57:52.039Z,1.96
2023-02-16T00:58:27.756Z,1.96
2023-02-16T01:00:27.141Z,0.65
2023-02-16T01:02:58.748Z,1.42
2023-02-16T01:03:27.750Z,1.42
2023-02-16T01:05:25.903Z,0.47
2023-02-16T01:08:11.415Z,0.78
2023-02-16T01:08:27.750Z,0.78
2023-02-16T01:11:11.294Z,0.67
2023-02-16T01:13:27.714Z,0.67
2023-02-16T01:13:47.621Z,1.98
2023-02-16T01:16:22.744Z,0.15
2023-02-16T01:18:27.733Z,0.15
2023-02-16T01:18:50.356Z,1.87
2023-02-16T01:21:19.436Z,-0.42
2023-02-16T01:23:27.815Z,-0.42
2023-02-16T01:23:48.783Z,0.22
2023-02-16T01:26:18.813Z,0.08
2023-02-16T01:28:27.901Z,0.08
2023-02-16T01:28:45.608Z,1.64
2023-02-16T01:31:13.403Z,1.13
2023-02-16T01:33:27.737Z,1.13
2023-02-16T01:33:41.512Z,0.13
2023-02-16T01:36:19.524Z,1.31
2023-02-16T01:38:27.765Z,1.31
2023-02-16T01:38:46.026Z,-1.17
2023-02-16T01:41:24.754Z,0.93
2023-02-16T01:43:27.745Z,0.93
2023-02-16T01:43:58.651Z,1.25
2023-02-16T01:46:48.380Z,1.37
2023-02-16T01:48:27.822Z,1.37
2023-02-16T01:49:18.012Z,1.35
2023-02-16T01:51:55.676Z,-0.15
2023-02-16T01:53:27.742Z,-0.15
2023-02-16T01:54:38.692Z,1.36
2023-02-16T01:57:31.335Z,0.81
2023-02-16T01:58:27.782Z,0.81
2023-02-16T01:59:57.851Z,1.44
2023-02-16T02:02:28.030Z,1.05
2023-02-16T02:03:27.756Z,1.05
2023-02-16T02:05:21.772Z,1.53
2023-02-16T02:08:10.307Z,1.16
2023-02-16T02:08:27.754Z,1.16
2023-02-16T02:11:00.076Z,1.48
2023-02-16T02:13:58.243Z,1.36
2023-02-16T02:13:58.614Z,1.36
2023-02-16T02:16:27.554Z,1.21
2023-02-16T02:18:27.747Z,1.21
2023-02-16T02:18:54.856Z,0.37
2023-02-16T02:21:56.851Z,1.18
2023-02-16T02:23:27.878Z,1.18
2023-02-16T02:25:03.515Z,1.12
2023-02-16T02:27:39.491Z,1.13
2023-02-16T02:28:27.811Z,1.13
2023-02-16T02:30:21.517Z,1.13
2023-02-16T02:33:25.343Z,1.10
2023-02-16T02:33:27.747Z,1.10
2023-02-16T02:36:20.276Z,1.04
2023-02-16T02:38:27.803Z,1.04
2023-02-16T02:39:04.371Z,1.02
2023-02-16T02:41:52.663Z,1.07
2023-02-16T02:43:27.730Z,1.07
2023-02-16T02:44:24.414Z,0.67
2023-02-16T02:46:51.278Z,0.55
2023-02-16T02:48:28.031Z,0.55
2023-02-16T02:49:21.395Z,0.70
2023-02-16T02:51:48.936Z,1.08
2023-02-16T02:53:28.125Z,1.08
2023-02-16T02:54:36.745Z,1.13
2023-02-16T02:57:40.672Z,1.16
2023-02-16T02:58:27.761Z,1.16
2023-02-16T03:00:41.881Z,0.95
2023-02-16T03:03:39.444Z,1.23
2023-02-16T03:03:39.597Z,1.23
2023-02-16T03:06:19.785Z,1.07
2023-02-16T03:08:27.816Z,1.07
2023-02-16T03:09:00.747Z,-0.42
2023-02-16T03:11:48.411Z,1.02
2023-02-16T03:13:27.758Z,1.02
2023-02-16T03:14:20.556Z,0.98
2023-02-16T03:17:13.736Z,0.51
2023-02-16T03:18:27.786Z,0.51
2023-02-16T03:20:01.487Z,0.51
2023-02-16T03:22:50.937Z,0.87
2023-02-16T03:23:27.889Z,0.87
2023-02-16T03:25:37.012Z,0.95
2023-02-16T03:28:26.115Z,0.98
2023-02-16T03:28:27.805Z,0.98
2023-02-16T03:30:56.755Z,0.51
2023-02-16T03:33:24.927Z,-0.08
2023-02-16T03:33:27.771Z,-0.08
2023-02-16T03:35:55.307Z,0.91
2023-02-16T03:38:25.890Z,0.94
2023-02-16T03:38:27.788Z,0.94
2023-02-16T03:40:56.610Z,0.89
2023-02-16T03:43:27.860Z,0.65
2023-02-16T03:43:28.045Z,0.65
2023-02-16T03:45:54.440Z,0.27
2023-02-16T03:48:23.938Z,0.17
2023-02-16T03:48:27.898Z,0.17
2023-02-16T03:50:50.335Z,0.09
2023-02-16T03:53:18.440Z,-0.09
2023-02-16T03:53:27.973Z,-0.09
2023-02-16T03:55:47.266Z,0.75
2023-02-16T03:58:17.122Z,-0.46
2023-02-16T03:58:28.037Z,-0.46
2023-02-16T04:00:43.651Z,0.09
2023-02-16T04:03:12.638Z,0.64
2023-02-16T04:03:28.153Z,0.64
2023-02-16T04:05:42.702Z,0.52
2023-02-16T04:08:10.332Z,0.59
2023-02-16T04:08:27.776Z,0.59
2023-02-16T04:10:38.248Z,0.55
2023-02-16T04:13:04.886Z,-0.75
2023-02-16T04:13:27.771Z,-0.75
2023-02-16T04:15:34.682Z,0.62
2023-02-16T04:18:02.051Z,0.05
2023-02-16T04:18:27.782Z,0.05
2023-02-16T04:20:32.450Z,-0.32
2023-02-16T04:23:01.925Z,0.02
2023-02-16T04:23:27.868Z,0.02
2023-02-16T04:25:28.825Z,0.27
2023-02-16T04:27:55.937Z,0.47
2023-02-16T04:28:27.810Z,0.47
2023-02-16T04:30:25.800Z,0.63
2023-02-16T04:32:53.037Z,-0.01
2023-02-16T04:33:27.768Z,-0.01
2023-02-16T04:35:25.689Z,0.38
2023-02-16T04:37:52.064Z,0.56
2023-02-16T04:38:27.946Z,0.56
2023-02-16T04:40:23.173Z,0.14
2023-02-16T04:42:57.776Z,0.47
2023-02-16T04:43:27.841Z,0.47
2023-02-16T04:45:24.154Z,-0.93
2023-02-16T04:47:50.814Z,-0.15
2023-02-16T04:48:27.776Z,-0.15
2023-02-16T04:50:17.707Z,0.31
2023-02-16T04:52:44.100Z,0.11
2023-02-16T04:53:27.788Z,0.11
2023-02-16T04:55:10.865Z,0.22
2023-02-16T04:57:40.809Z,0.43
2023-02-16T04:58:27.802Z,0.43
2023-02-16T05:00:14.246Z,0.56
2023-02-16T05:02:43.255Z,0.01
2023-02-16T05:03:27.828Z,0.01
2023-02-16T05:05:09.640Z,0.21
2023-02-16T05:07:37.128Z,0.57
2023-02-16T05:08:27.799Z,0.57
2023-02-16T05:10:05.165Z,0.38
2023-02-16T05:12:55.188Z,0.38
2023-02-16T05:13:27.790Z,0.38
2023-02-16T05:15:21.765Z,0.64
2023-02-16T05:17:48.546Z,0.01
2023-02-16T05:18:27.778Z,0.01
2023-02-16T05:20:15.253Z,-0.73
2023-02-16T05:22:43.531Z,0.22
2023-02-16T05:23:27.859Z,0.22
2023-02-16T05:25:09.946Z,-0.11
2023-02-16T05:27:41.519Z,0.46
2023-02-16T05:28:27.850Z,0.46
2023-02-16T05:30:08.357Z,-0.22
2023-02-16T05:32:34.711Z,-0.15
2023-02-16T05:33:27.828Z,-0.15
2023-02-16T05:35:01.098Z,-0.12
2023-02-16T05:37:27.820Z,0.64
2023-02-16T05:38:27.805Z,0.64
2023-02-16T05:39:56.981Z,0.19
2023-02-16T05:42:30.636Z,0.90
2023-02-16T05:43:27.815Z,0.90
2023-02-16T05:44:57.134Z,0.55
2023-02-16T05:47:23.820Z,0.72
2023-02-16T05:48:27.829Z,0.72
2023-02-16T05:49:50.120Z,0.41
2023-02-16T05:52:17.014Z,0.97
2023-02-16T05:53:28.082Z,0.97
2023-02-16T05:54:43.349Z,0.67
2023-02-16T05:57:10.284Z,0.99
2023-02-16T05:58:28.076Z,0.99
2023-02-16T05:59:39.899Z,1.04
2023-02-16T06:02:06.847Z,0.36
2023-02-16T06:03:28.048Z,0.36
2023-02-16T06:04:33.271Z,1.04
2023-02-16T06:07:00.020Z,1.06
2023-02-16T06:08:28.290Z,1.06
2023-02-16T06:09:26.500Z,0.76
2023-02-16T06:11:53.063Z,0.90
2023-02-16T06:13:27.976Z,0.90
2023-02-16T06:14:21.077Z,1.15
2023-02-16T06:16:50.199Z,1.20
2023-02-16T06:18:27.830Z,1.20
2023-02-16T06:19:18.303Z,1.15
2023-02-16T06:21:50.619Z,1.26
2023-02-16T06:23:27.837Z,1.26
2023-02-16T06:24:17.353Z,1.31
2023-02-16T06:26:43.740Z,1.10
2023-02-16T06:28:27.837Z,1.10
2023-02-16T06:29:13.393Z,1.16
2023-02-16T06:31:39.836Z,0.96
2023-02-16T06:33:27.812Z,0.96
2023-02-16T06:34:07.449Z,1.41
2023-02-16T06:36:34.613Z,1.04
2023-02-16T06:38:27.822Z,1.04
2023-02-16T06:39:01.521Z,1.43
2023-02-16T06:41:40.911Z,1.47
2023-02-16T06:43:29.891Z,1.47
2023-02-16T06:44:10.029Z,1.33
2023-02-16T06:46:36.777Z,1.32
2023-02-16T06:48:27.855Z,1.32
2023-02-16T06:49:03.636Z,1.57
2023-02-16T06:51:30.199Z,1.57
2023-02-16T06:53:27.825Z,1.57
2023-02-16T06:53:57.118Z,1.24
2023-02-16T06:56:23.948Z,1.21
2023-02-16T06:58:27.852Z,1.21
2023-02-16T06:58:51.083Z,1.38
2023-02-16T07:01:23.393Z,1.63
2023-02-16T07:03:27.875Z,1.63
2023-02-16T07:03:50.907Z,1.38
2023-02-16T07:06:17.858Z,1.81
2023-02-16T07:08:27.847Z,1.81
2023-02-16T07:08:44.174Z,1.92
2023-02-16T07:11:11.814Z,1.95
2023-02-16T07:13:27.845Z,1.95
2023-02-16T07:13:38.310Z,2.02
2023-02-16T07:16:06.474Z,1.59
2023-02-16T07:18:27.846Z,1.59
2023-02-16T07:18:33.555Z,1.43
2023-02-16T07:21:00.208Z,1.91
2023-02-16T07:23:26.662Z,0.91
2023-02-16T07:23:27.902Z,0.91
2023-02-16T07:25:53.209Z,1.91
2023-02-16T07:28:19.548Z,2.14
2023-02-16T07:28:27.829Z,2.14
2023-02-16T07:30:46.106Z,1.59
2023-02-16T07:33:12.481Z,1.66
2023-02-16T07:33:27.848Z,1.66
2023-02-16T07:35:38.824Z,1.81
2023-02-16T07:38:05.773Z,2.24
2023-02-16T07:38:27.815Z,2.24
2023-02-16T07:40:32.468Z,1.85
2023-02-16T07:43:04.316Z,2.24
2023-02-16T07:43:27.889Z,2.24
2023-02-16T07:45:32.660Z,2.25
2023-02-16T07:47:59.867Z,2.33
2023-02-16T07:48:27.843Z,2.33
2023-02-16T07:50:28.595Z,2.19
2023-02-16T07:52:55.011Z,2.30
2023-02-16T07:53:27.828Z,2.30
2023-02-16T07:55:21.541Z,2.04
2023-02-16T07:57:49.524Z,2.45
2023-02-16T07:58:27.911Z,2.45
2023-02-16T08:00:16.510Z,2.31
2023-02-16T08:02:42.896Z,2.25
2023-02-16T08:03:28.027Z,2.25
2023-02-16T08:05:10.666Z,1.55
2023-02-16T08:07:37.248Z,2.07
2023-02-16T08:08:27.883Z,2.07
2023-02-16T08:10:03.787Z,2.79
2023-02-16T08:12:30.186Z,2.88
2023-02-16T08:13:27.846Z,2.88
2023-02-16T08:14:56.699Z,2.93
2023-02-16T08:17:23.106Z,3.02
2023-02-16T08:18:27.903Z,3.02
2023-02-16T08:19:50.781Z,2.99
2023-02-16T08:22:18.135Z,2.78
2023-02-16T08:23:27.915Z,2.78
2023-02-16T08:24:44.697Z,2.63
2023-02-16T08:27:11.384Z,2.94
2023-02-16T08:28:29.192Z,2.94
2023-02-16T08:29:38.042Z,2.87
2023-02-16T08:32:10.282Z,2.78
2023-02-16T08:33:29.849Z,2.78
2023-02-16T08:34:37.037Z,3.21
2023-02-16T08:37:04.515Z,3.30
2023-02-16T08:38:27.850Z,3.30
2023-02-16T08:39:32.811Z,3.39
2023-02-16T08:42:02.316Z,3.27
2023-02-16T08:43:27.852Z,3.27
2023-02-16T08:44:30.497Z,3.24
2023-02-16T08:47:00.339Z,3.56
2023-02-16T08:48:27.856Z,3.56
2023-02-16T08:49:27.678Z,3.67
2023-02-16T08:51:56.550Z,3.47
2023-02-16T08:53:27.844Z,3.47
2023-02-16T08:54:27.095Z,3.23
2023-02-16T08:56:54.455Z,3.17
2023-02-16T08:58:27.843Z,3.17
2023-02-16T08:59:22.573Z,3.68
2023-02-16T09:01:49.270Z,3.99
2023-02-16T09:03:27.850Z,3.99
2023-02-16T09:04:17.448Z,3.75
2023-02-16T09:06:45.677Z,4.20
2023-02-16T09:08:27.872Z,4.20
2023-02-16T09:09:13.212Z,4.38
2023-02-16T09:11:40.950Z,4.66
2023-02-16T09:13:27.860Z,4.66
2023-02-16T09:14:09.295Z,4.81
2023-02-16T09:16:39.381Z,4.93
2023-02-16T09:18:27.875Z,4.93
2023-02-16T09:19:06.924Z,5.43
2023-02-16T09:21:33.803Z,5.22
2023-02-16T09:23:27.898Z,5.22
2023-02-16T09:24:02.319Z,5.64
2023-02-16T09:26:32.807Z,5.91
2023-02-16T09:28:27.876Z,5.91
2023-02-16T09:29:02.078Z,5.74
2023-02-16T09:31:32.524Z,5.98
2023-02-16T09:33:27.841Z,5.98
2023-02-16T09:34:22.998Z,6.63
2023-02-16T09:36:50.319Z,6.54
2023-02-16T09:38:27.911Z,6.54
2023-02-16T09:39:17.840Z,6.35
2023-02-16T09:42:02.976Z,6.54
2023-02-16T09:43:27.855Z,6.54
2023-02-16T09:44:49.073Z,5.98
2023-02-16T09:47:31.401Z,6.15
2023-02-16T09:48:27.854Z,6.15
2023-02-16T09:50:03.863Z,6.53
2023-02-16T09:52:40.291Z,6.67
2023-02-16T09:53:27.851Z,6.67
2023-02-16T09:55:15.334Z,6.60
2023-02-16T09:57:55.354Z,6.76
2023-02-16T09:58:27.878Z,6.76
2023-02-16T10:00:33.893Z,6.79
2023-02-16T10:03:38.049Z,6.78
2023-02-16T10:03:38.300Z,6.78
2023-02-16T10:06:13.661Z,6.75
2023-02-16T10:08:27.854Z,6.75
2023-02-16T10:08:53.134Z,6.10
2023-02-16T10:11:48.812Z,6.69
2023-02-16T10:13:27.886Z,6.69
2023-02-16T10:14:41.106Z,6.77
2023-02-16T10:17:19.570Z,6.77
2023-02-16T10:18:27.891Z,6.77
2023-02-16T10:20:01.575Z,6.79
2023-02-16T10:22:36.658Z,6.43
2023-02-16T10:23:27.898Z,6.43
2023-02-16T10:25:12.056Z,6.43
2023-02-16T10:27:41.882Z,6.37
2023-02-16T10:28:27.954Z,6.37
2023-02-16T10:30:15.347Z,6.73
2023-02-16T10:33:08.166Z,6.64
2023-02-16T10:33:28.133Z,6.64
2023-02-16T10:35:43.865Z,6.62
2023-02-16T10:38:21.015Z,6.60
2023-02-16T10:38:27.885Z,6.60
2023-02-16T10:41:06.221Z,6.58
2023-02-16T10:43:27.999Z,6.58
2023-02-16T10:43:44.053Z,6.57
2023-02-16T10:46:25.985Z,6.40
2023-02-16T10:48:27.976Z,6.40
2023-02-16T10:48:54.507Z,5.31
2023-02-16T10:51:28.035Z,6.52
2023-02-16T10:53:27.889Z,6.52
2023-02-16T10:54:08.293Z,6.49
2023-02-16T10:56:34.588Z,6.50
2023-02-16T10:58:27.887Z,6.50
2023-02-16T10:59:05.188Z,6.03
2023-02-16T11:01:38.840Z,6.61
2023-02-16T11:03:27.901Z,6.61
2023-02-16T11:04:05.698Z,6.37
2023-02-16T11:06:32.713Z,6.54
2023-02-16T11:08:29.757Z,6.54
2023-02-16T11:09:04.416Z,6.84
2023-02-16T11:11:38.368Z,6.98
2023-02-16T11:13:27.990Z,6.98
2023-02-16T11:14:09.142Z,7.01
2023-02-16T11:16:35.764Z,7.29
2023-02-16T11:18:27.900Z,7.29
2023-02-16T11:19:24.630Z,7.56
2023-02-16T11:21:56.975Z,7.61
2023-02-16T11:23:27.925Z,7.61
2023-02-16T11:24:30.041Z,7.65
2023-02-16T11:27:22.839Z,7.92
2023-02-16T11:28:27.905Z,7.92
2023-02-16T11:29:50.748Z,8.01
2023-02-16T11:32:21.705Z,8.21
2023-02-16T11:33:27.941Z,8.21
2023-02-16T11:34:50.982Z,8.24
2023-02-16T11:37:33.123Z,8.35
2023-02-16T11:38:27.887Z,8.35
2023-02-16T11:40:13.987Z,8.35
2023-02-16T11:42:47.074Z,8.26
2023-02-16T11:43:27.902Z,8.26
2023-02-16T11:45:27.137Z,8.47
2023-02-16T11:47:56.871Z,8.31
2023-02-16T11:48:27.918Z,8.31
2023-02-16T11:50:32.585Z,8.37
2023-02-16T11:53:14.895Z,8.50
2023-02-16T11:53:27.905Z,8.50
2023-02-16T11:55:44.240Z,7.94
2023-02-16T11:58:29.225Z,8.55
2023-02-16T11:58:29.409Z,8.55
2023-02-16T12:01:28.275Z,8.62
2023-02-16T12:03:30.445Z,8.62
2023-02-16T12:04:25.854Z,8.73
2023-02-16T12:07:15.489Z,8.68
2023-02-16T12:08:27.927Z,8.68
2023-02-16T12:10:02.268Z,8.70
2023-02-16T12:12:48.850Z,7.59
2023-02-16T12:13:27.912Z,7.59
2023-02-16T12:15:15.689Z,8.79
2023-02-16T12:17:54.853Z,8.43
2023-02-16T12:18:27.948Z,8.43
2023-02-16T12:20:31.984Z,8.92
2023-02-16T12:23:14.864Z,8.63
2023-02-16T12:23:27.926Z,8.63
2023-02-16T12:25:59.780Z,8.98
2023-02-16T12:29:08.468Z,9.01
2023-02-16T12:29:08.676Z,9.01
2023-02-16T12:32:03.199Z,8.94
2023-02-16T12:33:27.923Z,8.94
2023-02-16T12:35:00.102Z,8.85
2023-02-16T12:37:35.921Z,8.92
2023-02-16T12:38:27.885Z,8.92
2023-02-16T12:40:27.504Z,8.88
2023-02-16T12:43:04.877Z,8.96
2023-02-16T12:43:27.931Z,8.96
2023-02-16T12:45:39.320Z,9.01
2023-02-16T12:48:19.740Z,9.11
2023-02-16T12:48:27.888Z,9.11
2023-02-16T12:50:48.536Z,8.73
2023-02-16T12:53:27.918Z,9.15
2023-02-16T12:53:28.085Z,9.15
2023-02-16T12:56:01.856Z,9.18
2023-02-16T12:58:37.471Z,9.06
2023-02-16T12:58:37.611Z,9.06
2023-02-16T13:01:12.136Z,9.54
2023-02-16T13:03:28.049Z,9.54
2023-02-16T13:03:44.585Z,9.56
2023-02-16T13:06:27.675Z,9.60
2023-02-16T13:08:27.888Z,9.60
2023-02-16T13:09:18.084Z,9.52
2023-02-16T13:12:09.595Z,9.77
2023-02-16T13:13:27.913Z,9.77
2023-02-16T13:14:42.198Z,9.31
2023-02-16T13:17:17.829Z,10.17
2023-02-16T13:18:27.948Z,10.17
2023-02-16T13:19:46.814Z,10.25
2023-02-16T13:22:42.561Z,10.50
2023-02-16T13:23:27.951Z,10.50
2023-02-16T13:25:42.516Z,10.18
2023-02-16T13:28:31.613Z,10.72
2023-02-16T13:28:31.966Z,10.72
2023-02-16T13:31:37.126Z,10.97
2023-02-16T13:33:27.940Z,10.97
2023-02-16T13:34:41.500Z,11.01
2023-02-16T13:37:36.146Z,11.15
2023-02-16T13:38:27.950Z,11.15
2023-02-16T13:40:35.519Z,11.23
2023-02-16T13:43:23.901Z,10.66
2023-02-16T13:43:27.903Z,10.66
2023-02-16T13:45:54.141Z,11.40
2023-02-16T13:48:27.916Z,11.21
2023-02-16T13:48:28.043Z,11.21
2023-02-16T13:51:04.639Z,11.58
2023-02-16T13:53:27.919Z,11.58
2023-02-16T13:53:38.618Z,11.42
2023-02-16T13:56:22.333Z,11.17
2023-02-16T13:58:27.931Z,11.17
2023-02-16T13:58:50.885Z,11.40
2023-02-16T14:01:32.615Z,11.90
2023-02-16T14:03:27.938Z,11.90
2023-02-16T14:04:03.237Z,11.97
2023-02-16T14:06:37.900Z,11.65
2023-02-16T14:08:27.909Z,11.65
2023-02-16T14:09:16.272Z,11.97
2023-02-16T14:11:53.071Z,12.01
2023-02-16T14:13:27.963Z,12.01
2023-02-16T14:14:42.633Z,12.00
2023-02-16T14:17:15.596Z,11.98
2023-02-16T14:18:28.100Z,11.98
2023-02-16T14:19:57.682Z,12.01
2023-02-16T14:22:45.290Z,11.98
2023-02-16T14:23:27.928Z,11.98
2023-02-16T14:25:23.447Z,11.93
2023-02-16T14:28:01.957Z,11.92
2023-02-16T14:28:27.909Z,11.92
2023-02-16T14:30:46.927Z,11.97
2023-02-16T14:33:15.900Z,11.96
2023-02-16T14:33:27.939Z,11.96
2023-02-16T14:36:00.543Z,11.95
2023-02-16T14:38:34.556Z,11.88
2023-02-16T14:38:34.705Z,11.88
2023-02-16T14:41:04.042Z,11.78
2023-02-16T14:43:27.927Z,11.78
2023-02-16T14:43:56.029Z,11.74
2023-02-16T14:46:22.421Z,11.67
2023-02-16T14:48:28.026Z,11.67
2023-02-16T14:48:54.994Z,11.61
2023-02-16T14:52:00.182Z,11.56
2023-02-16T14:53:27.933Z,11.56
2023-02-16T14:54:58.968Z,11.52
2023-02-16T14:57:50.613Z,11.58
2023-02-16T14:58:27.918Z,11.58
2023-02-16T15:00:58.892Z,11.66
2023-02-16T15:03:37.857Z,11.77
2023-02-16T15:03:38.118Z,11.77
2023-02-16T15:06:06.259Z,11.85
2023-02-16T15:08:27.925Z,11.85
2023-02-16T15:08:48.595Z,11.23
2023-02-16T15:11:23.355Z,10.81
2023-02-16T15:13:27.941Z,10.81
2023-02-16T15:13:53.393Z,11.51
2023-02-16T15:16:22.081Z,11.54
2023-02-16T15:18:27.942Z,11.54
2023-02-16T15:18:51.912Z,11.40
2023-02-16T15:21:30.730Z,11.65
2023-02-16T15:23:27.914Z,11.65
2023-02-16T15:24:02.597Z,11.09
2023-02-16T15:26:36.327Z,11.25
2023-02-16T15:28:27.920Z,11.25
2023-02-16T15:29:21.356Z,11.28
2023-02-16T15:31:48.808Z,11.46
2023-02-16T15:33:27.939Z,11.46
2023-02-16T15:34:28.692Z,11.18
2023-02-16T15:36:56.640Z,10.25
2023-02-16T15:38:27.964Z,10.25
2023-02-16T15:39:42.655Z,10.32
2023-02-16T15:42:20.857Z,11.31
2023-02-16T15:43:27.926Z,11.31
2023-02-16T15:44:48.058Z,10.77
2023-02-16T15:47:20.946Z,10.91
2023-02-16T15:48:27.974Z,10.91
2023-02-16T15:49:47.281Z,10.71
2023-02-16T15:52:19.367Z,10.98
2023-02-16T15:53:27.970Z,10.98
2023-02-16T15:54:48.607Z,11.11
2023-02-16T15:57:38.742Z,11.11
2023-02-16T15:58:28.053Z,11.11
2023-02-16T16:00:23.212Z,11.07
2023-02-16T16:02:53.564Z,11.03
2023-02-16T16:03:27.946Z,11.03
2023-02-16T16:05:25.875Z,11.02
2023-02-16T16:07:52.750Z,10.66
2023-02-16T16:08:27.962Z,10.66
2023-02-16T16:10:29.784Z,10.59
2023-02-16T16:13:20.666Z,10.89
2023-02-16T16:13:27.941Z,10.89
2023-02-16T16:15:49.358Z,10.71
2023-02-16T16:18:37.443Z,10.52
2023-02-16T16:18:37.610Z,10.52
2023-02-16T16:21:11.699Z,10.17
2023-02-16T16:23:27.911Z,10.17
2023-02-16T16:23:38.097Z,10.66
2023-02-16T16:26:20.663Z,10.68
2023-02-16T16:28:27.956Z,10.68
2023-02-16T16:28:47.558Z,10.03
2023-02-16T16:31:31.278Z,9.37
2023-02-16T16:33:27.976Z,9.37
2023-02-16T16:34:04.593Z,10.57
2023-02-16T16:36:36.809Z,10.54
2023-02-16T16:38:27.935Z,10.54
2023-02-16T16:39:11.639Z,9.22
2023-02-16T16:41:40.149Z,10.01
2023-02-16T16:43:27.970Z,10.01
2023-02-16T16:44:12.237Z,10.42
2023-02-16T16:46:38.997Z,10.43
2023-02-16T16:48:27.964Z,10.43
2023-02-16T16:49:15.932Z,10.44
2023-02-16T16:51:43.845Z,10.41
2023-02-16T16:53:27.953Z,10.41
2023-02-16T16:54:11.409Z,10.37
2023-02-16T16:56:40.111Z,10.35
2023-02-16T16:58:27.967Z,10.35
2023-02-16T16:59:07.134Z,10.11
2023-02-16T17:01:34.017Z,10.32
2023-02-16T17:03:30.432Z,10.32
2023-02-16T17:04:01.282Z,10.31
2023-02-16T17:06:27.760Z,8.99
2023-02-16T17:08:27.947Z,8.99
2023-02-16T17:08:55.308Z,10.10
2023-02-16T17:11:34.599Z,10.29
2023-02-16T17:13:27.960Z,10.29
2023-02-16T17:14:16.528Z,10.29
2023-02-16T17:16:45.877Z,9.70
2023-02-16T17:18:27.920Z,9.70
2023-02-16T17:19:14.481Z,10.27
2023-02-16T17:21:41.723Z,10.30
2023-02-16T17:23:27.938Z,10.30
2023-02-16T17:24:10.108Z,10.31
2023-02-16T17:26:37.576Z,9.80
2023-02-16T17:28:27.958Z,9.80
2023-02-16T17:29:05.061Z,10.35
2023-02-16T17:31:31.647Z,10.36
2023-02-16T17:33:27.953Z,10.36
2023-02-16T17:33:58.092Z,9.99
2023-02-16T17:36:27.169Z,10.34
2023-02-16T17:38:27.932Z,10.34
2023-02-16T17:38:54.197Z,10.31
2023-02-16T17:41:24.051Z,10.30
2023-02-16T17:43:27.978Z,10.30
2023-02-16T17:43:50.826Z,10.27
2023-02-16T17:46:18.784Z,10.31
2023-02-16T17:48:28.323Z,10.31
2023-02-16T17:48:49.158Z,10.30
2023-02-16T17:51:18.298Z,10.40
2023-02-16T17:53:27.944Z,10.40
2023-02-16T17:53:45.313Z,9.87
2023-02-16T17:56:14.088Z,10.36
2023-02-16T17:58:27.930Z,10.36
2023-02-16T17:58:41.332Z,10.32
2023-02-16T18:01:12.721Z,10.21
2023-02-16T18:03:27.950Z,10.21
2023-02-16T18:03:39.237Z,10.17
2023-02-16T18:06:06.158Z,10.06
2023-02-16T18:08:27.950Z,10.06
2023-02-16T18:08:32.782Z,10.42
2023-02-16T18:11:02.144Z,9.97
2023-02-16T18:13:29.382Z,10.26
2023-02-16T18:13:29.516Z,10.26
2023-02-16T18:15:57.845Z,9.96
2023-02-16T18:18:24.254Z,10.42
2023-02-16T18:18:27.955Z,10.42
2023-02-16T18:20:50.641Z,10.37
2023-02-16T18:23:17.345Z,8.79
2023-02-16T18:23:27.963Z,8.79
2023-02-16T18:25:44.010Z,10.31
2023-02-16T18:28:18.328Z,10.30
2023-02-16T18:28:27.971Z,10.30
2023-02-16T18:30:47.556Z,9.95
2023-02-16T18:33:14.002Z,9.82
2023-02-16T18:33:27.986Z,9.82
2023-02-16T18:35:40.563Z,10.04
2023-02-16T18:38:07.299Z,9.97
2023-02-16T18:38:27.971Z,9.97
2023-02-16T18:40:33.625Z,10.05
2023-02-16T18:42:59.985Z,10.06
2023-02-16T18:43:27.945Z,10.06
2023-02-16T18:45:26.621Z,9.64
2023-02-16T18:47:53.078Z,9.71
2023-02-16T18:48:27.977Z,9.71
2023-02-16T18:50:19.682Z,9.82
2023-02-16T18:52:46.130Z,10.13
2023-02-16T18:53:27.972Z,10.13
2023-02-16T18:55:13.072Z,9.80
2023-02-16T18:57:39.428Z,9.93
2023-02-16T18:58:28.009Z,9.93
2023-02-16T19:00:08.849Z,10.12
2023-02-16T19:02:35.536Z,10.10
2023-02-16T19:03:30.081Z,10.10
2023-02-16T19:05:02.553Z,9.76
2023-02-16T19:07:28.939Z,10.08
2023-02-16T19:08:27.968Z,10.08
2023-02-16T19:09:57.788Z,10.08
2023-02-16T19:12:24.956Z,10.08
2023-02-16T19:13:27.974Z,10.08
2023-02-16T19:14:51.434Z,9.98
2023-02-16T19:17:17.984Z,9.51
2023-02-16T19:18:28.018Z,9.51
2023-02-16T19:19:44.823Z,9.70
2023-02-16T19:22:11.249Z,9.77
2023-02-16T19:23:27.958Z,9.77
2023-02-16T19:24:38.382Z,9.36
2023-02-16T19:27:05.009Z,9.41
2023-02-16T19:28:27.952Z,9.41
2023-02-16T19:29:31.377Z,8.99
2023-02-16T19:31:57.877Z,9.66
2023-02-16T19:33:27.969Z,9.66
2023-02-16T19:34:24.382Z,9.35
2023-02-16T19:36:50.692Z,9.09
2023-02-16T19:38:27.952Z,9.09
2023-02-16T19:39:18.098Z,9.18
2023-02-16T19:41:44.622Z,9.33
2023-02-16T19:43:27.963Z,9.33
2023-02-16T19:44:14.029Z,9.02
2023-02-16T19:46:41.217Z,9.28
2023-02-16T19:48:27.964Z,9.28
2023-02-16T19:49:08.487Z,8.67
2023-02-16T19:51:34.845Z,9.24
2023-02-16T19:53:27.985Z,9.24
2023-02-16T19:54:01.281Z,9.21
2023-02-16T19:56:27.735Z,8.71
2023-02-16T19:58:27.967Z,8.71
2023-02-16T19:58:57.973Z,9.30
2023-02-16T20:01:27.376Z,8.99
2023-02-16T20:03:27.937Z,8.99
2023-02-16T20:03:54.597Z,9.32
2023-02-16T20:06:24.128Z,9.15
2023-02-16T20:08:27.947Z,9.15
2023-02-16T20:08:51.880Z,9.30
2023-02-16T20:11:20.496Z,9.28
2023-02-16T20:13:27.958Z,9.28
2023-02-16T20:13:47.435Z,9.30
2023-02-16T20:16:15.301Z,9.10
2023-02-16T20:18:28.047Z,9.10
2023-02-16T20:18:42.427Z,9.35
2023-02-16T20:21:23.626Z,9.38
2023-02-16T20:23:27.974Z,9.38
2023-02-16T20:23:53.199Z,9.43
2023-02-16T20:26:23.801Z,8.71
2023-02-16T20:28:28.032Z,8.71
2023-02-16T20:28:51.452Z,9.49
2023-02-16T20:31:25.461Z,9.44
2023-02-16T20:33:27.987Z,9.44
2023-02-16T20:33:52.926Z,9.00
2023-02-16T20:36:19.489Z,8.22
2023-02-16T20:38:27.982Z,8.22
2023-02-16T20:38:46.170Z,9.41
2023-02-16T20:41:12.731Z,9.39
2023-02-16T20:43:27.997Z,9.39
2023-02-16T20:43:39.495Z,9.54
2023-02-16T20:46:07.484Z,9.49
2023-02-16T20:48:27.992Z,9.49
2023-02-16T20:48:34.902Z,9.29
2023-02-16T20:51:03.667Z,9.44
2023-02-16T20:53:27.972Z,9.44
2023-02-16T20:53:30.147Z,9.45
2023-02-16T20:56:02.498Z,9.04
2023-02-16T20:58:29.657Z,9.43
2023-02-16T20:58:29.817Z,9.43
2023-02-16T21:00:56.321Z,9.39
2023-02-16T21:03:22.821Z,9.41
2023-02-16T21:03:27.969Z,9.41
2023-02-16T21:05:49.300Z,9.48
2023-02-16T21:08:15.656Z,9.03
2023-02-16T21:08:27.955Z,9.03
2023-02-16T21:10:42.010Z,9.40
2023-02-16T21:13:08.494Z,8.33
2023-02-16T21:13:27.992Z,8.33
2023-02-16T21:15:37.407Z,9.40
2023-02-16T21:18:04.984Z,9.00
2023-02-16T21:18:27.959Z,9.00
2023-02-16T21:20:31.749Z,9.57
2023-02-16T21:22:58.227Z,9.54
2023-02-16T21:23:27.969Z,9.54
2023-02-16T21:25:24.910Z,9.62
2023-02-16T21:27:51.268Z,9.62
2023-02-16T21:28:27.985Z,9.62
2023-02-16T21:30:17.889Z,9.70
2023-02-16T21:32:44.316Z,9.52
2023-02-16T21:33:28.012Z,9.52
2023-02-16T21:35:10.765Z,9.71
2023-02-16T21:37:38.601Z,9.41
2023-02-16T21:38:27.971Z,9.41
2023-02-16T21:40:25.511Z,9.20
2023-02-16T21:42:52.003Z,9.65
2023-02-16T21:43:27.984Z,9.65
2023-02-16T21:45:18.892Z,9.61
2023-02-16T21:48:05.475Z,9.26
2023-02-16T21:48:28.002Z,9.26
2023-02-16T21:50:36.795Z,9.70
2023-02-16T21:53:05.824Z,9.40
2023-02-16T21:53:28.008Z,9.40
2023-02-16T21:55:50.893Z,9.64
2023-02-16T21:58:17.807Z,9.04
2023-02-16T21:58:28.014Z,9.04
2023-02-16T22:00:51.612Z,9.77
2023-02-16T22:03:18.669Z,9.66
2023-02-16T22:03:27.986Z,9.66
2023-02-16T22:05:45.227Z,9.77
2023-02-16T22:08:14.766Z,9.50
2023-02-16T22:08:27.970Z,9.50
2023-02-16T22:10:44.031Z,9.87
2023-02-16T22:13:10.697Z,9.85
2023-02-16T22:13:30.342Z,9.85
2023-02-16T22:15:40.199Z,9.93
2023-02-16T22:18:07.013Z,9.93
2023-02-16T22:18:28.370Z,9.93